createdAt,value
2016-05-14T00:00:50.686Z,0
2016-05-14T00:01:51.627Z,0
2016-05-14T00:02:51.849Z,0
2016-05-14T00:03:50.679Z,0
2016-05-14T00:04:50.355Z,0
2016-05-14T00:05:50.512Z,0
2016-05-14T00:06:50.500Z,0
2016-05-14T00:07:50.955Z,0
2016-05-14T00:08:50.005Z,0
2016-05-14T00:09:50.476Z,0
2016-05-14T00:10:50.979Z,0
2016-05-14T00:11:50.591Z,0
2016-05-14T00:12:49.813Z,0
2016-05-14T00:14:03.566Z,0
2016-05-14T00:14:51.115Z,0
2016-05-14T00:15:50.165Z,0
2016-05-14T00:16:53.573Z,0
2016-05-14T00:17:49.921Z,0
2016-05-14T00:18:49.845Z,0
2016-05-14T00:19:50.145Z,0
2016-05-14T00:20:49.943Z,0
2016-05-14T00:21:50.025Z,0
2016-05-14T00:22:54.168Z,0
2016-05-14T00:23:49.968Z,0
2016-05-14T00:24:50.236Z,0
2016-05-14T00:25:49.956Z,0
2016-05-14T00:26:50.600Z,0
2016-05-14T00:27:50.291Z,0
2016-05-14T00:28:49.575Z,0
2016-05-14T00:29:50.452Z,0
2016-05-14T00:30:51.033Z,0
2016-05-14T00:31:50.458Z,0
2016-05-14T00:32:52.930Z,0
2016-05-14T00:33:49.666Z,0
2016-05-14T00:34:49.746Z,0
2016-05-14T00:35:50.469Z,0
2016-05-14T00:36:50.111Z,0
2016-05-14T00:37:50.630Z,0
2016-05-14T00:38:50.086Z,0
2016-05-14T00:39:51.854Z,0
2016-05-14T00:40:50.544Z,0
2016-05-14T00:41:49.641Z,0
2016-05-14T00:42:49.565Z,0
2016-05-14T00:43:49.615Z,0
2016-05-14T00:44:49.226Z,0
2016-05-14T00:45:49.699Z,0
2016-05-14T00:46:49.139Z,0
2016-05-14T00:47:49.751Z,0
2016-05-14T00:48:50.129Z,0
2016-05-14T00:49:49.834Z,0
2016-05-14T00:50:49.306Z,0
2016-05-14T00:51:49.667Z,0
2016-05-14T00:52:49.201Z,0
2016-05-14T00:53:48.657Z,0
2016-05-14T00:54:49.176Z,0
2016-05-14T00:55:50.695Z,0
2016-05-14T00:56:50.619Z,0
2016-05-14T00:57:49.558Z,0
2016-05-14T00:58:49.530Z,0
2016-05-14T00:59:49.720Z,0
2016-05-14T01:00:50.223Z,0
2016-05-14T01:01:50.226Z,0
2016-05-14T01:02:49.994Z,0
2016-05-14T01:03:48.981Z,0
2016-05-14T01:04:50.655Z,0
2016-05-14T01:05:49.658Z,0
2016-05-14T01:06:48.661Z,0
2016-05-14T01:07:48.633Z,0
2016-05-14T01:08:48.339Z,0
2016-05-14T01:09:48.857Z,0
2016-05-14T01:10:48.797Z,0
2016-05-14T01:11:48.987Z,0
2016-05-14T01:12:48.521Z,0
2016-05-14T01:13:48.540Z,0
2016-05-14T01:14:48.292Z,0
2016-05-14T01:15:48.796Z,0
2016-05-14T01:16:48.719Z,0
2016-05-14T01:17:48.315Z,0
2016-05-14T01:18:48.257Z,0
2016-05-14T01:19:48.368Z,0
2016-05-14T01:20:48.370Z,0
2016-05-14T01:21:48.264Z,0
2016-05-14T01:22:48.548Z,0
2016-05-14T01:23:48.395Z,0
2016-05-14T01:24:48.334Z,0
2016-05-14T01:25:48.025Z,0
2016-05-14T01:26:47.934Z,0
2016-05-14T01:27:48.264Z,0
2016-05-14T01:28:48.408Z,0
2016-05-14T01:29:48.379Z,0
2016-05-14T01:30:47.507Z,0
2016-05-14T01:31:47.917Z,0
2016-05-14T01:32:47.950Z,0
2016-05-14T01:33:48.672Z,0
2016-05-14T01:34:48.347Z,0
2016-05-14T01:35:48.177Z,0
2016-05-14T01:36:47.835Z,0
2016-05-14T01:37:47.979Z,0
2016-05-14T01:38:47.982Z,0
2016-05-14T01:39:47.719Z,0
2016-05-14T01:40:47.908Z,0
2016-05-14T01:41:47.866Z,0
2016-05-14T01:42:47.835Z,0
2016-05-14T01:43:47.885Z,0
2016-05-14T01:44:47.638Z,0
2016-05-14T01:45:48.094Z,0
2016-05-14T01:46:47.769Z,0
2016-05-14T01:47:47.771Z,0
2016-05-14T01:48:47.805Z,0
2016-05-14T01:49:47.651Z,0
2016-05-14T01:50:47.530Z,0
2016-05-14T01:51:47.657Z,0
2016-05-14T01:52:47.910Z,0
2016-05-14T01:53:47.475Z,0
2016-05-14T01:54:47.431Z,0
2016-05-14T01:55:47.574Z,0
2016-05-14T01:56:47.592Z,0
2016-05-14T01:57:47.643Z,0
2016-05-14T01:58:47.942Z,0
2016-05-14T01:59:47.320Z,0
2016-05-14T02:00:47.634Z,0
2016-05-14T02:01:47.309Z,0
2016-05-14T02:02:47.468Z,0
2016-05-14T02:03:47.783Z,0
2016-05-14T02:04:47.598Z,0
2016-05-14T02:05:47.429Z,0
2016-05-14T02:06:47.150Z,0
2016-05-14T02:07:47.325Z,0
2016-05-14T02:08:47.297Z,0
2016-05-14T02:09:47.597Z,0
2016-05-14T02:10:47.552Z,0
2016-05-14T02:11:47.242Z,0
2016-05-14T02:12:47.213Z,0
2016-05-14T02:13:47.497Z,0
2016-05-14T02:14:47.000Z,0
2016-05-14T02:15:47.425Z,0
2016-05-14T02:16:47.335Z,0
2016-05-14T02:17:46.915Z,0
2016-05-14T02:18:47.793Z,0
2016-05-14T02:19:46.857Z,0
2016-05-14T02:20:47.048Z,0
2016-05-14T02:21:47.285Z,0
2016-05-14T02:22:47.365Z,0
2016-05-14T02:23:46.884Z,0
2016-05-14T02:24:46.949Z,0
2016-05-14T02:25:46.859Z,0
2016-05-14T02:26:46.954Z,0
2016-05-14T02:27:47.003Z,0
2016-05-14T02:28:46.601Z,0
2016-05-14T02:29:46.870Z,0
2016-05-14T02:30:46.512Z,0
2016-05-14T02:31:46.703Z,0
2016-05-14T02:32:46.721Z,0
2016-05-14T02:33:47.239Z,0
2016-05-14T02:34:46.929Z,0
2016-05-14T02:35:46.744Z,0
2016-05-14T02:36:46.684Z,0
2016-05-14T02:37:46.531Z,0
2016-05-14T02:38:46.690Z,0
2016-05-14T02:39:46.850Z,0
2016-05-14T02:40:46.820Z,0
2016-05-14T02:41:46.697Z,0
2016-05-14T02:42:46.435Z,0
2016-05-14T02:43:46.594Z,0
2016-05-14T02:44:46.613Z,0
2016-05-14T02:45:47.443Z,0
2016-05-14T02:46:46.711Z,0
2016-05-14T02:47:46.433Z,0
2016-05-14T02:48:46.748Z,0
2016-05-14T02:49:46.704Z,0
2016-05-14T02:50:46.581Z,0
2016-05-14T02:51:46.584Z,0
2016-05-14T02:52:46.619Z,0
2016-05-14T02:53:46.120Z,0
2016-05-14T02:54:45.639Z,0
2016-05-14T02:55:46.189Z,0
2016-05-14T02:56:46.504Z,0
2016-05-14T02:57:46.241Z,0
2016-05-14T02:58:46.243Z,0
2016-05-14T02:59:46.106Z,0
2016-05-14T03:00:45.780Z,0
2016-05-14T03:01:46.095Z,0
2016-05-14T03:02:46.020Z,0
2016-05-14T03:03:46.117Z,0
2016-05-14T03:04:46.322Z,0
2016-05-14T03:05:45.919Z,0
2016-05-14T03:06:45.859Z,0
2016-05-14T03:07:45.971Z,0
2016-05-14T03:08:45.974Z,0
2016-05-14T03:09:46.133Z,0
2016-05-14T03:10:46.150Z,0
2016-05-14T03:11:45.607Z,0
2016-05-14T03:12:45.781Z,0
2016-05-14T03:13:45.659Z,0
2016-05-14T03:14:45.849Z,0
2016-05-14T03:15:46.571Z,0
2016-05-14T03:16:46.324Z,0
2016-05-14T03:17:46.044Z,0
2016-05-14T03:18:45.938Z,0
2016-05-14T03:19:45.534Z,0
2016-05-14T03:20:45.474Z,0
2016-05-14T03:21:49.212Z,0
2016-05-14T03:22:47.012Z,0
2016-05-14T03:23:45.390Z,0
2016-05-14T03:24:45.595Z,0
2016-05-14T03:25:46.441Z,0
2016-05-14T03:26:45.756Z,0
2016-05-14T03:27:45.775Z,0
2016-05-14T03:28:45.762Z,0
2016-05-14T03:29:45.561Z,0
2016-05-14T03:30:45.518Z,0
2016-05-14T03:31:45.801Z,0
2016-05-14T03:32:45.445Z,0
2016-05-14T03:33:45.884Z,0
2016-05-14T03:34:45.700Z,0
2016-05-14T03:35:45.343Z,0
2016-05-14T03:36:45.752Z,0
2016-05-14T03:37:45.161Z,0
2016-05-14T03:38:45.258Z,0
2016-05-14T03:39:45.495Z,0
2016-05-14T03:40:46.575Z,0
2016-05-14T03:41:45.203Z,0
2016-05-14T03:42:45.159Z,0
2016-05-14T03:43:45.193Z,0
2016-05-14T03:44:45.117Z,0
2016-05-14T03:45:59.260Z,0
2016-05-14T03:46:45.263Z,0
2016-05-14T03:47:45.079Z,0
2016-05-14T03:48:45.127Z,0
2016-05-14T03:49:44.865Z,0
2016-05-14T03:50:46.305Z,0
2016-05-14T03:51:45.808Z,0
2016-05-14T03:52:46.685Z,0
2016-05-14T03:53:45.141Z,0
2016-05-14T03:54:47.019Z,0
2016-05-14T03:55:46.490Z,0
2016-05-14T03:56:47.119Z,0
2016-05-14T03:57:46.511Z,0
2016-05-14T03:58:45.170Z,0
2016-05-14T03:59:44.487Z,0
2016-05-14T04:00:47.067Z,0
2016-05-14T04:01:45.992Z,0
2016-05-14T04:02:44.759Z,0
2016-05-14T04:03:44.950Z,0
2016-05-14T04:04:46.625Z,0
2016-05-14T04:05:45.595Z,0
2016-05-14T04:06:58.395Z,0
2016-05-14T04:07:46.336Z,0
2016-05-14T04:08:45.823Z,0
2016-05-14T04:09:46.201Z,0
2016-05-14T04:10:44.828Z,0
2016-05-14T04:11:45.097Z,0
2016-05-14T04:12:44.927Z,0
2016-05-14T04:13:45.367Z,0
2016-05-14T04:14:44.932Z,0
2016-05-14T04:15:45.154Z,0
2016-05-14T04:16:44.547Z,0
2016-05-14T04:17:45.050Z,0
2016-05-14T04:18:44.755Z,0
2016-05-14T04:19:45.077Z,0
2016-05-14T04:20:44.310Z,0
2016-05-14T04:21:45.621Z,0
2016-05-14T04:22:45.229Z,0
2016-05-14T04:23:46.540Z,0
2016-05-14T04:24:45.426Z,0
2016-05-14T04:25:45.070Z,0
2016-05-14T04:26:46.212Z,0
2016-05-14T04:27:44.996Z,0
2016-05-14T04:28:44.593Z,0
2016-05-14T04:29:44.999Z,0
2016-05-14T04:30:44.789Z,0
2016-05-14T04:31:45.829Z,0
2016-05-14T04:32:44.385Z,0
2016-05-14T04:33:58.580Z,0
2016-05-14T04:34:44.588Z,0
2016-05-14T04:35:44.968Z,0
2016-05-14T04:36:45.254Z,0
2016-05-14T04:37:46.461Z,0
2016-05-14T04:38:44.451Z,0
2016-05-14T04:39:44.783Z,0
2016-05-14T04:40:44.928Z,0
2016-05-14T04:41:46.337Z,0
2016-05-14T04:42:58.200Z,0
2016-05-14T04:43:44.109Z,0
2016-05-14T04:44:43.988Z,0
2016-05-14T04:45:44.506Z,0
2016-05-14T04:46:44.166Z,0
2016-05-14T04:47:44.715Z,0
2016-05-14T04:48:45.204Z,0
2016-05-14T04:49:44.738Z,5
2016-05-14T04:50:43.568Z,5
2016-05-14T04:51:45.227Z,5
2016-05-14T04:52:57.792Z,5
2016-05-14T04:53:58.529Z,5
2016-05-14T04:54:44.501Z,5
2016-05-14T04:55:43.863Z,5
2016-05-14T04:56:44.179Z,5
2016-05-14T04:57:45.978Z,5
2016-05-14T04:58:44.434Z,5
2016-05-14T04:59:43.904Z,5
2016-05-14T05:00:44.282Z,5
2016-05-14T05:01:44.129Z,5
2016-05-14T05:02:44.319Z,0
2016-05-14T05:03:45.698Z,5
2016-05-14T05:04:43.856Z,5
2016-05-14T05:05:45.046Z,5
2016-05-14T05:06:44.393Z,5
2016-05-14T05:07:43.489Z,5
2016-05-14T05:08:45.289Z,5
2016-05-14T05:09:43.963Z,5
2016-05-14T05:10:44.325Z,5
2016-05-14T05:11:44.234Z,5
2016-05-14T05:12:43.612Z,5
2016-05-14T05:13:44.381Z,5
2016-05-14T05:14:44.008Z,10
2016-05-14T05:15:44.589Z,5
2016-05-14T05:16:43.747Z,5
2016-05-14T05:17:43.844Z,5
2016-05-14T05:18:44.330Z,5
2016-05-14T05:19:43.725Z,5
2016-05-14T05:20:57.618Z,5
2016-05-14T05:21:43.621Z,5
2016-05-14T05:22:46.967Z,5
2016-05-14T05:23:57.423Z,5
2016-05-14T05:24:57.097Z,5
2016-05-14T05:25:57.053Z,5
2016-05-14T05:26:57.540Z,5
2016-05-14T05:27:43.902Z,10
2016-05-14T05:28:43.624Z,10
2016-05-14T05:29:43.970Z,15
2016-05-14T05:30:43.738Z,10
2016-05-14T05:31:44.929Z,10
2016-05-14T05:32:45.072Z,10
2016-05-14T05:33:57.903Z,10
2016-05-14T05:34:57.406Z,10
2016-05-14T05:35:57.158Z,10
2016-05-14T05:36:57.333Z,10
2016-05-14T05:37:56.789Z,10
2016-05-14T05:38:43.572Z,10
2016-05-14T05:39:56.731Z,10
2016-05-14T05:40:56.999Z,10
2016-05-14T05:41:43.689Z,10
2016-05-14T05:42:56.975Z,5
2016-05-14T05:43:45.352Z,5
2016-05-14T05:44:57.167Z,5
2016-05-14T05:45:43.247Z,10
2016-05-14T05:46:45.969Z,10
2016-05-14T05:47:43.925Z,10
2016-05-14T05:48:43.443Z,10
2016-05-14T05:49:43.977Z,10
2016-05-14T05:50:43.198Z,10
2016-05-14T05:51:43.467Z,10
2016-05-14T05:52:43.814Z,10
2016-05-14T05:53:44.504Z,10
2016-05-14T05:54:44.132Z,10
2016-05-14T05:55:44.477Z,10
2016-05-14T05:56:42.527Z,10
2016-05-14T05:57:42.796Z,10
2016-05-14T05:58:46.204Z,10
2016-05-14T05:59:42.801Z,10
2016-05-14T06:00:42.412Z,10
2016-05-14T06:01:43.385Z,10
2016-05-14T06:02:42.465Z,10
2016-05-14T06:03:42.593Z,10
2016-05-14T06:04:45.018Z,10
2016-05-14T06:05:42.036Z,10
2016-05-14T06:06:42.164Z,10
2016-05-14T06:07:43.776Z,10
2016-05-14T06:08:42.590Z,10
2016-05-14T06:09:42.765Z,10
2016-05-14T06:10:42.486Z,10
2016-05-14T06:11:42.442Z,10
2016-05-14T06:12:42.367Z,10
2016-05-14T06:13:42.839Z,10
2016-05-14T06:14:42.248Z,10
2016-05-14T06:15:42.484Z,15
2016-05-14T06:16:42.487Z,15
2016-05-14T06:17:42.552Z,15
2016-05-14T06:18:42.961Z,15
2016-05-14T06:19:43.041Z,15
2016-05-14T06:20:42.544Z,15
2016-05-14T06:21:42.813Z,15
2016-05-14T06:22:42.878Z,10
2016-05-14T06:23:42.319Z,10
2016-05-14T06:24:42.055Z,15
2016-05-14T06:25:43.402Z,15
2016-05-14T06:26:42.638Z,15
2016-05-14T06:27:42.407Z,15
2016-05-14T06:28:41.598Z,15
2016-05-14T06:29:55.475Z,15
2016-05-14T06:30:42.337Z,15
2016-05-14T06:31:42.621Z,15
2016-05-14T06:32:42.062Z,10
2016-05-14T06:33:41.268Z,10
2016-05-14T06:34:41.317Z,15
2016-05-14T06:35:42.288Z,15
2016-05-14T06:36:41.525Z,15
2016-05-14T06:37:42.059Z,15
2016-05-14T06:38:41.531Z,15
2016-05-14T06:39:42.064Z,10
2016-05-14T06:40:41.426Z,15
2016-05-14T06:41:41.444Z,15
2016-05-14T06:42:41.666Z,15
2016-05-14T06:43:42.170Z,15
2016-05-14T06:44:42.078Z,15
2016-05-14T06:45:41.347Z,15
2016-05-14T06:46:42.614Z,15
2016-05-14T06:47:40.930Z,15
2016-05-14T06:48:42.214Z,15
2016-05-14T06:49:41.919Z,15
2016-05-14T06:50:42.078Z,15
2016-05-14T06:51:41.893Z,15
2016-05-14T06:52:42.038Z,15
2016-05-14T06:53:41.603Z,15
2016-05-14T06:54:41.074Z,15
2016-05-14T06:55:42.467Z,15
2016-05-14T06:56:41.329Z,15
2016-05-14T06:57:41.035Z,15
2016-05-14T06:58:41.663Z,15
2016-05-14T06:59:41.009Z,15
2016-05-14T07:00:41.637Z,10
2016-05-14T07:01:42.404Z,10
2016-05-14T07:02:42.626Z,15
2016-05-14T07:03:42.067Z,15
2016-05-14T07:04:40.865Z,15
2016-05-14T07:05:40.760Z,20
2016-05-14T07:06:40.762Z,20
2016-05-14T07:07:41.718Z,20
2016-05-14T07:08:41.018Z,20
2016-05-14T07:09:40.708Z,20
2016-05-14T07:10:41.070Z,15
2016-05-14T07:11:41.416Z,15
2016-05-14T07:12:40.919Z,15
2016-05-14T07:13:43.156Z,15
2016-05-14T07:14:40.972Z,20
2016-05-14T07:15:40.928Z,15
2016-05-14T07:16:40.648Z,20
2016-05-14T07:17:41.589Z,20
2016-05-14T07:18:41.498Z,20
2016-05-14T07:19:41.656Z,20
2016-05-14T07:20:40.644Z,20
2016-05-14T07:21:40.599Z,20
2016-05-14T07:22:40.696Z,20
2016-05-14T07:23:41.636Z,20
2016-05-14T07:24:41.342Z,20
2016-05-14T07:25:42.033Z,20
2016-05-14T07:26:42.424Z,20
2016-05-14T07:27:41.038Z,20
2016-05-14T07:28:40.385Z,15
2016-05-14T07:29:42.762Z,15
2016-05-14T07:30:53.858Z,10
2016-05-14T07:31:42.313Z,10
2016-05-14T07:32:40.066Z,10
2016-05-14T07:33:40.194Z,10
2016-05-14T07:34:53.900Z,15
2016-05-14T07:35:41.762Z,20
2016-05-14T07:36:53.999Z,25
2016-05-14T07:37:41.299Z,25
2016-05-14T07:38:41.146Z,25
2016-05-14T07:39:41.335Z,25
2016-05-14T07:40:40.276Z,25
2016-05-14T07:41:40.981Z,25
2016-05-14T07:42:40.124Z,20
2016-05-14T07:43:40.690Z,20
2016-05-14T07:44:54.427Z,20
2016-05-14T07:45:40.773Z,20
2016-05-14T07:46:40.370Z,20
2016-05-14T07:47:40.217Z,20
2016-05-14T07:48:40.798Z,20
2016-05-14T07:49:40.862Z,15
2016-05-14T07:50:53.506Z,20
2016-05-14T07:51:42.164Z,20
2016-05-14T07:52:40.495Z,20
2016-05-14T07:53:40.920Z,20
2016-05-14T07:54:53.532Z,20
2016-05-14T07:55:54.316Z,20
2016-05-14T07:56:43.491Z,20
2016-05-14T07:57:53.524Z,20
2016-05-14T07:58:53.230Z,20
2016-05-14T07:59:53.468Z,20
2016-05-14T08:00:40.752Z,25
2016-05-14T08:01:53.957Z,25
2016-05-14T08:02:40.288Z,25
2016-05-14T08:03:44.150Z,25
2016-05-14T08:04:41.356Z,25
2016-05-14T08:05:40.468Z,25
2016-05-14T08:06:41.282Z,25
2016-05-14T08:07:53.864Z,30
2016-05-14T08:08:41.226Z,20
2016-05-14T08:09:41.588Z,20
2016-05-14T08:10:40.404Z,20
2016-05-14T08:11:39.890Z,20
2016-05-14T08:12:42.783Z,20
2016-05-14T08:13:41.817Z,20
2016-05-14T08:14:42.633Z,15
2016-05-14T08:15:40.839Z,15
2016-05-14T08:16:40.934Z,15
2016-05-14T08:17:40.047Z,15
2016-05-14T08:18:53.440Z,10
2016-05-14T08:19:39.567Z,10
2016-05-14T08:20:39.695Z,15
2016-05-14T08:21:38.948Z,20
2016-05-14T08:22:39.436Z,20
2016-05-14T08:23:39.563Z,20
2016-05-14T08:24:40.097Z,25
2016-05-14T08:25:39.725Z,25
2016-05-14T08:26:40.602Z,25
2016-05-14T08:27:39.464Z,20
2016-05-14T08:28:40.373Z,25
2016-05-14T08:29:40.907Z,20
2016-05-14T08:30:39.957Z,20
2016-05-14T08:31:39.679Z,20
2016-05-14T08:32:39.619Z,20
2016-05-14T08:33:40.122Z,20
2016-05-14T08:34:38.593Z,20
2016-05-14T08:35:39.174Z,25
2016-05-14T08:36:39.598Z,25
2016-05-14T08:37:39.366Z,20
2016-05-14T08:38:39.744Z,20
2016-05-14T08:39:39.465Z,25
2016-05-14T08:40:40.546Z,25
2016-05-14T08:41:40.502Z,25
2016-05-14T08:42:39.176Z,25
2016-05-14T08:43:40.226Z,25
2016-05-14T08:44:39.870Z,30
2016-05-14T08:45:39.232Z,25
2016-05-14T08:46:39.719Z,25
2016-05-14T08:47:38.800Z,25
2016-05-14T08:48:39.568Z,20
2016-05-14T08:49:39.211Z,20
2016-05-14T08:50:38.776Z,20
2016-05-14T08:51:38.747Z,20
2016-05-14T08:52:38.656Z,20
2016-05-14T08:53:38.547Z,20
2016-05-14T08:54:52.959Z,20
2016-05-14T08:55:39.664Z,20
2016-05-14T08:56:52.105Z,25
2016-05-14T08:57:38.999Z,25
2016-05-14T08:58:39.314Z,30
2016-05-14T08:59:38.720Z,30
2016-05-14T09:00:38.582Z,30
2016-05-14T09:01:39.149Z,30
2016-05-14T09:02:38.368Z,35
2016-05-14T09:03:39.155Z,30
2016-05-14T09:04:38.546Z,30
2016-05-14T09:05:38.970Z,30
2016-05-14T09:06:38.410Z,30
2016-05-14T09:07:38.553Z,30
2016-05-14T09:08:38.072Z,25
2016-05-14T09:09:38.747Z,20
2016-05-14T09:10:51.924Z,20
2016-05-14T09:11:38.643Z,15
2016-05-14T09:12:38.645Z,15
2016-05-14T09:13:38.695Z,15
2016-05-14T09:14:38.792Z,20
2016-05-14T09:15:37.919Z,25
2016-05-14T09:16:38.218Z,30
2016-05-14T09:17:38.064Z,30
2016-05-14T09:18:38.473Z,30
2016-05-14T09:19:38.337Z,30
2016-05-14T09:20:37.916Z,30
2016-05-14T09:21:38.279Z,30
2016-05-14T09:22:38.734Z,30
2016-05-14T09:23:38.019Z,30
2016-05-14T09:24:37.709Z,30
2016-05-14T09:25:38.930Z,30
2016-05-14T09:26:37.933Z,35
2016-05-14T09:27:38.029Z,30
2016-05-14T09:28:38.454Z,25
2016-05-14T09:29:37.941Z,25
2016-05-14T09:30:37.896Z,25
2016-05-14T09:31:38.134Z,25
2016-05-14T09:32:37.980Z,25
2016-05-14T09:33:38.983Z,25
2016-05-14T09:34:37.861Z,25
2016-05-14T09:35:37.379Z,30
2016-05-14T09:36:38.101Z,30
2016-05-14T09:37:37.821Z,30
2016-05-14T09:38:37.496Z,30
2016-05-14T09:39:37.843Z,30
2016-05-14T09:40:38.220Z,25
2016-05-14T09:41:37.442Z,20
2016-05-14T09:42:37.522Z,15
2016-05-14T09:43:38.462Z,15
2016-05-14T09:44:37.857Z,15
2016-05-14T09:45:39.390Z,10
2016-05-14T09:46:37.112Z,10
2016-05-14T09:47:36.926Z,10
2016-05-14T09:48:37.320Z,10
2016-05-14T09:49:38.011Z,15
2016-05-14T09:50:36.997Z,15
2016-05-14T09:51:37.047Z,15
2016-05-14T09:52:37.315Z,20
2016-05-14T09:53:37.192Z,25
2016-05-14T09:54:36.805Z,25
2016-05-14T09:55:37.495Z,30
2016-05-14T09:56:37.201Z,30
2016-05-14T09:57:36.844Z,30
2016-05-14T09:58:36.847Z,30
2016-05-14T09:59:36.772Z,30
2016-05-14T10:00:36.852Z,30
2016-05-14T10:01:37.621Z,35
2016-05-14T10:02:36.577Z,35
2016-05-14T10:03:37.610Z,40
2016-05-14T10:04:37.066Z,40
2016-05-14T10:05:36.741Z,35
2016-05-14T10:06:37.181Z,35
2016-05-14T10:07:37.246Z,35
2016-05-14T10:08:36.671Z,35
2016-05-14T10:09:36.830Z,30
2016-05-14T10:10:36.693Z,30
2016-05-14T10:11:37.069Z,25
2016-05-14T10:12:36.432Z,25
2016-05-14T10:13:37.154Z,25
2016-05-14T10:14:36.390Z,30
2016-05-14T10:15:36.487Z,30
2016-05-14T10:16:36.395Z,30
2016-05-14T10:17:36.711Z,30
2016-05-14T10:18:36.917Z,25
2016-05-14T10:19:37.075Z,20
2016-05-14T10:20:35.984Z,20
2016-05-14T10:21:36.611Z,20
2016-05-14T10:22:36.505Z,20
2016-05-14T10:23:36.946Z,20
2016-05-14T10:24:36.698Z,25
2016-05-14T10:25:36.358Z,20
2016-05-14T10:26:36.453Z,25
2016-05-14T10:27:36.300Z,25
2016-05-14T10:28:36.397Z,30
2016-05-14T10:29:37.211Z,30
2016-05-14T10:30:35.886Z,35
2016-05-14T10:31:36.342Z,35
2016-05-14T10:32:35.860Z,35
2016-05-14T10:33:38.941Z,35
2016-05-14T10:34:37.007Z,35
2016-05-14T10:35:36.274Z,35
2016-05-14T10:36:36.105Z,35
2016-05-14T10:37:36.749Z,40
2016-05-14T10:38:36.299Z,55
2016-05-14T10:39:36.067Z,45
2016-05-14T10:40:35.913Z,55
2016-05-14T10:41:36.026Z,60
2016-05-14T10:42:36.060Z,45
2016-05-14T10:43:50.018Z,35
2016-05-14T10:44:35.862Z,30
2016-05-14T10:45:35.817Z,25
2016-05-14T10:46:36.117Z,25
2016-05-14T10:47:35.948Z,25
2016-05-14T10:48:36.544Z,25
2016-05-14T10:49:36.437Z,30
2016-05-14T10:50:35.939Z,35
2016-05-14T10:51:37.020Z,40
2016-05-14T10:52:35.931Z,45
2016-05-14T10:53:35.745Z,40
2016-05-14T10:54:36.278Z,35
2016-05-14T10:55:36.688Z,35
2016-05-14T10:56:35.956Z,40
2016-05-14T10:57:35.662Z,40
2016-05-14T10:58:49.324Z,40
2016-05-14T10:59:35.777Z,45
2016-05-14T11:00:35.889Z,50
2016-05-14T11:01:37.876Z,50
2016-05-14T11:02:35.832Z,50
2016-05-14T11:03:35.616Z,45
2016-05-14T11:04:35.415Z,35
2016-05-14T11:05:35.402Z,30
2016-05-14T11:06:38.686Z,25
2016-05-14T11:07:35.438Z,25
2016-05-14T11:08:35.177Z,25
2016-05-14T11:09:35.725Z,25
2016-05-14T11:10:35.462Z,25
2016-05-14T11:11:49.405Z,25
2016-05-14T11:12:36.296Z,25
2016-05-14T11:13:36.002Z,25
2016-05-14T11:14:35.176Z,25
2016-05-14T11:15:35.335Z,25
2016-05-14T11:16:35.166Z,20
2016-05-14T11:17:35.294Z,25
2016-05-14T11:18:35.890Z,25
2016-05-14T11:19:35.612Z,25
2016-05-14T11:20:35.177Z,25
2016-05-14T11:21:36.883Z,25
2016-05-14T11:22:36.042Z,25
2016-05-14T11:23:34.919Z,30
2016-05-14T11:24:35.031Z,35
2016-05-14T11:25:36.081Z,40
2016-05-14T11:26:34.897Z,45
2016-05-14T11:27:35.337Z,50
2016-05-14T11:28:35.636Z,45
2016-05-14T11:29:34.919Z,25
2016-05-14T11:30:34.828Z,25
2016-05-14T11:31:35.894Z,20
2016-05-14T11:32:35.506Z,20
2016-05-14T11:33:35.946Z,15
2016-05-14T11:34:34.824Z,15
2016-05-14T11:35:34.733Z,15
2016-05-14T11:36:35.189Z,15
2016-05-14T11:37:35.582Z,15
2016-05-14T11:38:34.897Z,15
2016-05-14T11:39:34.822Z,15
2016-05-14T11:40:34.527Z,20
2016-05-14T11:41:34.624Z,25
2016-05-14T11:42:34.548Z,30
2016-05-14T11:43:35.692Z,35
2016-05-14T11:44:34.679Z,40
2016-05-14T11:45:34.494Z,45
2016-05-14T11:46:34.731Z,50
2016-05-14T11:47:34.531Z,40
2016-05-14T11:48:34.674Z,45
2016-05-14T11:49:35.896Z,60
2016-05-14T11:50:34.445Z,70
2016-05-14T11:51:34.214Z,60
2016-05-14T11:52:34.420Z,65
2016-05-14T11:53:34.391Z,70
2016-05-14T11:54:34.534Z,115
2016-05-14T11:55:34.959Z,85
2016-05-14T11:56:34.695Z,80
2016-05-14T11:57:34.308Z,85
2016-05-14T11:58:48.516Z,120
2016-05-14T11:59:36.985Z,175
2016-05-14T12:00:34.206Z,420
2016-05-14T12:01:35.646Z,80
2016-05-14T12:02:34.383Z,155
2016-05-14T12:03:34.667Z,90
2016-05-14T12:04:34.436Z,115
2016-05-14T12:05:33.891Z,65
2016-05-14T12:06:33.957Z,165
2016-05-14T12:07:35.694Z,45
2016-05-14T12:08:34.212Z,35
2016-05-14T12:09:33.888Z,30
2016-05-14T12:10:33.607Z,25
2016-05-14T12:11:35.095Z,20
2016-05-14T12:12:33.738Z,15
2016-05-14T12:13:33.710Z,20
2016-05-14T12:14:34.260Z,20
2016-05-14T12:15:33.529Z,20
2016-05-14T12:16:34.782Z,20
2016-05-14T12:17:33.846Z,25
2016-05-14T12:18:34.458Z,30
2016-05-14T12:19:48.042Z,30
2016-05-14T12:20:33.745Z,30
2016-05-14T12:21:34.623Z,30
2016-05-14T12:22:33.750Z,30
2016-05-14T12:23:33.800Z,35
2016-05-14T12:24:33.787Z,30
2016-05-14T12:25:34.773Z,30
2016-05-14T12:26:33.729Z,25
2016-05-14T12:27:33.607Z,25
2016-05-14T12:28:33.531Z,25
2016-05-14T12:29:33.566Z,25
2016-05-14T12:30:33.600Z,25
2016-05-14T12:31:33.711Z,25
2016-05-14T12:32:33.558Z,25
2016-05-14T12:33:33.810Z,30
2016-05-14T12:34:33.391Z,30
2016-05-14T12:35:36.378Z,20
2016-05-14T12:36:33.460Z,15
2016-05-14T12:37:33.602Z,15
2016-05-14T12:38:33.402Z,15
2016-05-14T12:39:33.327Z,15
2016-05-14T12:40:33.471Z,20
2016-05-14T12:41:33.083Z,30
2016-05-14T12:42:33.226Z,40
2016-05-14T12:43:35.994Z,60
2016-05-14T12:44:33.435Z,155
2016-05-14T12:45:33.609Z,70
2016-05-14T12:46:33.424Z,45
2016-05-14T12:47:33.082Z,45
2016-05-14T12:48:33.382Z,25
2016-05-14T12:49:34.323Z,20
2016-05-14T12:50:33.075Z,25
2016-05-14T12:51:34.594Z,20
2016-05-14T12:52:33.643Z,25
2016-05-14T12:53:33.145Z,30
2016-05-14T12:54:34.226Z,40
2016-05-14T12:55:33.573Z,35
2016-05-14T12:56:33.310Z,40
2016-05-14T12:57:34.484Z,90
2016-05-14T12:58:33.190Z,430
2016-05-14T12:59:33.100Z,260
2016-05-14T13:00:33.055Z,175
2016-05-14T13:01:34.136Z,135
2016-05-14T13:02:33.123Z,210
2016-05-14T13:03:32.797Z,75
2016-05-14T13:04:33.535Z,100
2016-05-14T13:05:33.788Z,190
2016-05-14T13:06:33.041Z,70
2016-05-14T13:07:32.839Z,40
2016-05-14T13:08:32.749Z,30
2016-05-14T13:09:32.642Z,25
2016-05-14T13:10:33.097Z,25
2016-05-14T13:11:32.897Z,20
2016-05-14T13:12:32.650Z,25
2016-05-14T13:13:33.059Z,20
2016-05-14T13:14:32.405Z,25
2016-05-14T13:15:32.330Z,25
2016-05-14T13:16:32.927Z,30
2016-05-14T13:17:32.429Z,30
2016-05-14T13:18:32.260Z,30
2016-05-14T13:19:33.091Z,35
2016-05-14T13:20:32.656Z,30
2016-05-14T13:21:32.862Z,25
2016-05-14T13:22:33.412Z,20
2016-05-14T13:23:32.445Z,20
2016-05-14T13:24:32.604Z,15
2016-05-14T13:25:32.685Z,20
2016-05-14T13:26:32.357Z,25
2016-05-14T13:27:32.523Z,45
2016-05-14T13:28:32.315Z,40
2016-05-14T13:29:32.559Z,70
2016-05-14T13:30:32.710Z,65
2016-05-14T13:31:32.868Z,70
2016-05-14T13:32:32.433Z,50
2016-05-14T13:33:33.183Z,50
2016-05-14T13:34:32.216Z,55
2016-05-14T13:35:32.389Z,50
2016-05-14T13:36:32.372Z,60
2016-05-14T13:37:32.786Z,45
2016-05-14T13:38:32.637Z,30
2016-05-14T13:39:32.551Z,30
2016-05-14T13:40:32.262Z,30
2016-05-14T13:41:32.784Z,30
2016-05-14T13:42:32.476Z,25
2016-05-14T13:43:34.185Z,20
2016-05-14T13:44:32.314Z,20
2016-05-14T13:45:32.459Z,20
2016-05-14T13:46:32.010Z,20
2016-05-14T13:47:32.091Z,20
2016-05-14T13:48:33.970Z,20
2016-05-14T13:49:33.364Z,20
2016-05-14T13:50:32.367Z,20
2016-05-14T13:51:32.105Z,20
2016-05-14T13:52:32.233Z,15
2016-05-14T13:53:32.252Z,15
2016-05-14T13:54:32.176Z,15
2016-05-14T13:55:33.351Z,15
2016-05-14T13:56:32.416Z,10
2016-05-14T13:57:33.559Z,10
2016-05-14T13:58:32.218Z,10
2016-05-14T13:59:31.892Z,10
2016-05-14T14:00:32.333Z,10
2016-05-14T14:01:32.601Z,10
2016-05-14T14:02:31.791Z,10
2016-05-14T14:03:32.122Z,15
2016-05-14T14:05:32.064Z,20
2016-05-14T14:06:31.771Z,30
2016-05-14T14:07:32.680Z,45
2016-05-14T14:08:32.151Z,125
2016-05-14T14:09:32.684Z,790
2016-05-14T14:10:35.407Z,765
2016-05-14T14:11:33.315Z,625
2016-05-14T14:12:31.428Z,530
2016-05-14T14:13:32.649Z,285
2016-05-14T14:14:32.402Z,380
2016-05-14T14:15:32.669Z,950
2016-05-14T14:16:31.814Z,660
2016-05-14T14:17:32.128Z,405
2016-05-14T14:18:32.522Z,20
2016-05-14T14:19:31.946Z,15
2016-05-14T14:20:31.355Z,20
2016-05-14T14:21:32.280Z,395
2016-05-14T14:22:31.469Z,345
2016-05-14T14:23:31.489Z,200
2016-05-14T14:26:31.965Z,470
2016-05-14T14:27:32.296Z,175
2016-05-14T14:28:31.611Z,705
2016-05-14T14:29:31.426Z,35